Time;durP1;ratioP1;P1;durP2;ratioP2;P2;SDS_P1;SDS_P2;PMS_P1;PMS_P2;Temp;Humidity;BMP_temperature;BMP_pressure;BME280_temperature;BME280_humidity;BME280_pressure;Samples;Min_cycle;Max_cycle;Signal;HPM_P1;HPM_P2
2022/05/27 00:00:51;;;;;;;2.90;1.48;;;;;;;13.53;85.53;96455.03;5107111;28;20400;-65
2022/05/27 00:03:17;;;;;;;2.83;1.52;;;;;;;13.52;86.48;96458.66;5101789;28;20034;-64
2022/05/27 00:05:42;;;;;;;4.20;1.85;;;;;;;13.54;86.37;96451.41;5102566;28;20035;-64
2022/05/27 00:08:09;;;;;;;2.47;1.65;;;;;;;13.58;85.84;96451.00;5084264;28;20023;-63
2022/05/27 00:10:34;;;;;;;2.95;1.58;;;;;;;13.56;87.23;96446.81;5102586;28;20032;-64
2022/05/27 00:13:00;;;;;;;2.22;1.83;;;;;;;13.53;86.65;96437.38;5103302;28;20070;-63
2022/05/27 00:15:25;;;;;;;2.08;1.30;;;;;;;13.50;86.48;96442.09;5104125;28;20034;-64
2022/05/27 00:17:50;;;;;;;1.67;1.40;;;;;;;13.51;85.67;96443.75;5104091;28;20035;-64
2022/05/27 00:20:16;;;;;;;2.53;1.60;;;;;;;13.50;85.79;96442.09;5103345;28;20026;-63
2022/05/27 00:22:41;;;;;;;1.63;1.40;;;;;;;13.47;85.60;96443.19;5100425;28;20032;-63
2022/05/27 00:25:08;;;;;;;2.60;1.70;;;;;;;13.40;86.88;96432.34;5103308;28;20027;-63
2022/05/27 00:27:33;;;;;;;3.92;1.35;;;;;;;13.39;86.65;96427.19;5102311;28;20498;-64
2022/05/27 00:29:59;;;;;;;1.73;1.63;;;;;;;13.40;86.02;96429.69;5101341;28;20039;-64
2022/05/27 00:32:24;;;;;;;1.50;1.40;;;;;;;13.34;87.19;96424.94;5101516;28;20024;-64
2022/05/27 00:34:50;;;;;;;2.45;1.63;;;;;;;13.30;87.26;96418.28;5101095;28;20063;-64
2022/05/27 00:37:15;;;;;;;1.50;1.42;;;;;;;13.31;86.90;96422.59;5097803;28;20024;-64
2022/05/27 00:39:41;;;;;;;2.05;1.50;;;;;;;13.30;87.30;96420.94;5103812;28;20049;-62
2022/05/27 00:42:07;;;;;;;1.60;1.50;;;;;;;13.27;87.12;96418.56;5106176;28;20040;-63
2022/05/27 00:44:33;;;;;;;4.45;1.63;;;;;;;13.28;86.96;96413.16;5108264;28;20063;-63
2022/05/27 00:47:08;;;;;;;5.40;1.38;;;;;;;13.29;87.43;96411.31;5103874;28;20501;-64
2022/05/27 00:49:40;;;;;;;3.10;1.50;;;;;;;13.26;87.02;96414.25;5099209;28;20024;-64
2022/05/27 00:52:09;;;;;;;2.80;1.27;;;;;;;13.24;87.24;96417.03;5106426;28;20028;-63
2022/05/27 00:54:36;;;;;;;3.53;1.48;;;;;;;13.22;87.14;96412.88;5098798;28;20459;-63
2022/05/27 00:57:07;;;;;;;2.08;1.45;;;;;;;13.22;86.94;96418.16;5101076;28;20032;-64
2022/05/27 00:59:49;;;;;;;2.58;1.30;;;;;;;13.21;86.78;96416.50;5102111;28;20028;-64
2022/05/27 01:02:14;;;;;;;1.75;1.65;;;;;;;13.22;86.67;96412.88;5100743;28;20028;-63
2022/05/27 01:04:40;;;;;;;3.05;2.75;;;;;;;13.15;87.28;96416.09;5100238;28;20030;-64
2022/05/27 01:07:06;;;;;;;4.90;2.50;;;;;;;13.09;88.40;96415.81;5104610;28;20032;-64
2022/05/27 01:09:35;;;;;;;4.78;1.70;;;;;;;13.01;88.34;96417.31;5096339;28;20054;-63
2022/05/27 01:12:34;;;;;;;2.20;1.50;;;;;;;12.99;88.54;96411.34;5078923;28;20066;-64
2022/05/27 01:15:34;;;;;;;3.35;1.70;;;;;;;12.95;88.81;96409.13;5066841;28;20032;-64
2022/05/27 01:18:14;;;;;;;1.45;1.35;;;;;;;12.92;89.30;96412.03;5102885;28;20057;-63
2022/05/27 01:21:05;;;;;;;3.00;1.60;;;;;;;12.89;88.46;96416.63;5103997;28;20053;-63
2022/05/27 01:23:52;;;;;;;2.17;1.67;;;;;;;12.90;88.79;96418.28;5104425;28;20161;-63
2022/05/27 01:27:11;;;;;;;1.60;1.52;;;;;;;12.90;89.33;96410.38;5102782;28;20391;-63
2022/05/27 01:30:14;;;;;;;2.35;1.63;;;;;;;12.88;89.76;96409.66;5008441;28;20459;-63
2022/05/27 01:33:04;;;;;;;3.22;1.70;;;;;;;12.79;89.82;96421.09;5104273;28;20100;-63
2022/05/27 01:35:44;;;;;;;1.58;1.48;;;;;;;12.78;89.64;96419.41;5102610;28;20038;-63
2022/05/27 01:38:43;;;;;;;1.95;1.70;;;;;;;12.75;90.31;96420.50;5102757;28;20032;-64
2022/05/27 01:41:23;;;;;;;3.47;1.55;;;;;;;12.72;90.80;96409.41;5093848;28;20504;-63
2022/05/27 01:43:53;;;;;;;1.65;1.55;;;;;;;12.70;90.00;96412.16;5101184;28;20015;-63
2022/05/27 01:46:29;;;;;;;1.77;1.63;;;;;;;12.72;89.60;96410.22;5100134;28;20058;-63
2022/05/27 01:48:54;;;;;;;1.63;1.52;;;;;;;12.70;89.79;96409.53;5102482;28;20031;-64
2022/05/27 01:51:19;;;;;;;2.08;1.85;;;;;;;12.67;89.43;96416.88;5102490;28;20027;-64
2022/05/27 01:53:56;;;;;;;1.75;1.65;;;;;;;12.64;90.00;96418.00;5091385;28;20089;-63
2022/05/27 01:56:27;;;;;;;1.45;1.42;;;;;;;12.63;89.92;96418.13;5099815;28;20054;-64
2022/05/27 01:58:58;;;;;;;4.00;1.42;;;;;;;12.61;89.85;96416.47;5102198;28;20032;-63
2022/05/27 02:01:30;;;;;;;2.50;1.80;;;;;;;12.60;90.00;96411.34;5101924;28;20107;-64
2022/05/27 02:04:15;;;;;;;2.63;1.60;;;;;;;12.56;90.56;96412.56;5102726;28;20447;-63
2022/05/27 02:06:55;;;;;;;1.70;1.60;;;;;;;12.48;91.62;96413.25;5102124;28;20196;-63
2022/05/27 02:09:28;;;;;;;1.77;1.67;;;;;;;12.47;91.51;96414.22;5100948;28;20115;-63
2022/05/27 02:12:00;;;;;;;3.60;1.73;;;;;;;12.45;90.92;96410.88;5090807;28;20028;-63
2022/05/27 02:14:47;;;;;;;1.70;1.60;;;;;;;12.44;90.78;96417.13;5090896;28;20065;-63
2022/05/27 02:17:22;;;;;;;1.90;1.80;;;;;;;12.43;91.44;96404.91;5090719;28;20032;-64
2022/05/27 02:20:11;;;;;;;1.98;1.80;;;;;;;12.37;92.18;96413.38;5090591;28;20028;-63
2022/05/27 02:22:44;;;;;;;1.80;1.70;;;;;;;12.32;92.86;96409.34;5090348;28;20035;-63
2022/05/27 02:25:19;;;;;;;2.88;1.50;;;;;;;12.26;92.83;96406.41;5090658;28;20407;-63
2022/05/27 02:28:07;;;;;;;2.90;2.00;;;;;;;12.23;92.24;96410.13;5090428;28;20035;-63
2022/05/27 02:30:36;;;;;;;1.95;1.85;;;;;;;12.24;92.74;96408.34;5079269;28;20459;-63
2022/05/27 02:36:06;;;;;;;1.58;1.48;;;;;;;12.20;92.60;96399.03;5090505;28;20078;-63
2022/05/27 02:38:32;;;;;;;7.40;1.90;;;;;;;12.16;93.35;96401.94;5072030;28;20016;-63
2022/05/27 02:41:06;;;;;;;2.28;1.58;;;;;;;12.19;92.46;96403.44;5090572;28;20031;-63
2022/05/27 02:43:53;;;;;;;2.28;1.95;;;;;;;12.17;92.53;96400.97;5089967;28;20128;-64
2022/05/27 02:46:53;;;;;;;2.25;1.60;;;;;;;12.16;93.14;96390.53;5090009;28;20060;-63
2022/05/27 02:49:34;;;;;;;2.28;1.50;;;;;;;12.17;93.16;96400.13;5090189;28;20194;-63
2022/05/27 02:52:26;;;;;;;3.28;1.63;;;;;;;12.13;93.08;96404.00;5107285;28;20023;-63
2022/05/27 02:54:57;;;;;;;1.80;1.70;;;;;;;12.11;92.83;96405.94;5110431;28;20047;-63
2022/05/27 02:57:41;;;;;;;3.08;1.80;;;;;;;12.00;93.29;96412.94;5110386;28;20506;-63
2022/05/27 03:00:11;;;;;;;1.80;1.70;;;;;;;11.94;93.82;96410.84;5110441;28;20047;-63
2022/05/27 03:02:36;;;;;;;1.73;1.60;;;;;;;11.89;94.11;96407.78;5110321;28;20024;-63
2022/05/27 03:05:03;;;;;;;2.00;1.58;;;;;;;11.96;93.73;96408.91;5110637;28;20020;-63
2022/05/27 03:08:15;;;;;;;6.57;1.60;;;;;;;12.00;93.37;96407.66;5110260;28;20103;-64
2022/05/27 03:10:52;;;;;;;1.67;1.58;;;;;;;11.95;92.93;96401.13;5109391;28;20434;-64
2022/05/27 03:13:59;;;;;;;4.30;1.60;;;;;;;11.89;93.90;96413.03;5114361;28;20027;-63
2022/05/27 03:16:55;;;;;;;2.03;1.70;;;;;;;11.71;95.06;96408.38;5113661;28;20080;-63
2022/05/27 03:19:48;;;;;;;2.25;1.70;;;;;;;11.66;95.62;96426.41;5096162;28;20024;-64
2022/05/27 03:22:31;;;;;;;1.98;1.80;;;;;;;11.61;95.92;96420.69;5096030;28;20450;-64
2022/05/27 03:25:27;;;;;;;2.55;1.90;;;;;;;11.59;96.57;96419.97;5112923;28;20062;-64
2022/05/27 03:27:53;;;;;;;;;;;;;;;11.57;96.66;96429.81;5096388;28;20398;-63
2022/05/27 03:30:29;;;;;;;1.70;1.60;;;;;;;11.56;96.75;96428.13;5114302;28;19915;-64
2022/05/27 03:32:59;;;;;;;1.65;1.65;;;;;;;11.65;95.29;96431.81;5114306;28;20298;-63
2022/05/27 03:35:36;;;;;;;3.80;2.08;;;;;;;11.64;96.26;96441.53;5114068;28;20111;-64
2022/05/27 03:38:14;;;;;;;1.98;1.60;;;;;;;11.59;96.86;96428.72;5114426;28;20125;-63
2022/05/27 03:40:53;;;;;;;2.65;1.88;;;;;;;11.58;97.00;96436.75;5113891;28;20086;-63
2022/05/27 03:43:20;;;;;;;1.52;1.50;;;;;;;11.58;96.63;96426.22;5113999;28;20032;-63
2022/05/27 03:45:57;;;;;;;1.92;1.83;;;;;;;11.65;95.86;96422.09;5113855;28;20024;-63
2022/05/27 03:48:25;;;;;;;2.10;2.00;;;;;;;11.64;96.28;96425.72;5113992;28;20430;-63
2022/05/27 03:50:54;;;;;;;4.68;2.10;;;;;;;11.61;96.84;96431.25;5113772;28;20051;-63
2022/05/27 03:53:20;;;;;;;7.10;1.92;;;;;;;11.60;95.94;96426.91;5109124;28;20027;-63
2022/05/27 03:55:45;;;;;;;2.25;1.70;;;;;;;11.57;97.07;96430.66;5111735;28;20501;-63
2022/05/27 03:58:12;;;;;;;6.85;1.73;;;;;;;11.58;96.05;96427.06;5109183;28;20023;-63
2022/05/27 04:00:39;;;;;;;2.67;1.95;;;;;;;11.57;97.48;96432.44;5093138;28;20054;-64
2022/05/27 04:03:05;;;;;;;1.77;1.67;;;;;;;11.60;96.54;96435.66;5108149;28;20020;-64
2022/05/27 04:05:31;;;;;;;2.38;1.67;;;;;;;11.67;96.60;96440.41;5113316;28;20028;-63
2022/05/27 04:07:56;;;;;;;2.50;1.63;;;;;;;11.65;96.77;96437.94;5113658;28;20546;-64
2022/05/27 04:10:22;;;;;;;2.00;1.63;;;;;;;11.61;97.55;96439.97;5113296;28;20100;-63
2022/05/27 04:12:48;;;;;;;5.25;1.98;;;;;;;11.64;97.55;96445.94;5111818;28;20100;-63
2022/05/27 04:15:13;;;;;;;3.33;1.70;;;;;;;11.62;97.58;96451.38;5092890;28;20031;-64
2022/05/27 04:17:40;;;;;;;3.22;1.90;;;;;;;11.65;96.53;96447.63;5092893;28;20107;-64
2022/05/27 04:20:09;;;;;;;2.20;2.00;;;;;;;11.66;97.60;96444.03;5093246;28;20013;-63
2022/05/27 04:22:35;;;;;;;2.00;1.90;;;;;;;11.70;97.18;96440.16;5092816;28;20032;-63
2022/05/27 04:25:01;;;;;;;1.98;1.88;;;;;;;11.70;97.57;96435.72;5095784;28;20098;-64
2022/05/27 04:27:27;;;;;;;4.55;2.17;;;;;;;11.67;97.16;96441.25;5112956;28;20111;-63
2022/05/27 04:29:53;;;;;;;3.00;1.95;;;;;;;11.71;97.45;96436.53;5112907;28;20031;-64
2022/05/27 04:32:23;;;;;;;2.40;2.20;;;;;;;11.78;97.67;96442.13;5113019;28;20024;-63
2022/05/27 04:34:55;;;;;;;2.08;1.98;;;;;;;11.84;97.25;96441.63;5112901;28;20023;-63
2022/05/27 04:37:22;;;;;;;4.53;2.22;;;;;;;11.86;97.28;96442.34;5113080;28;20080;-64
2022/05/27 04:39:48;;;;;;;1.92;1.80;;;;;;;11.89;96.80;96442.06;5112810;28;20028;-64
2022/05/27 04:42:14;;;;;;;3.83;2.20;;;;;;;11.93;96.55;96446.09;5112893;28;20080;-64
2022/05/27 04:44:39;;;;;;;1.95;1.85;;;;;;;11.94;96.42;96442.50;5112980;28;20038;-63
2022/05/27 04:47:07;;;;;;;6.57;2.67;;;;;;;11.98;95.60;96446.53;5102389;28;20522;-64
2022/05/27 04:49:51;;;;;;;2.28;2.08;;;;;;;11.98;95.83;96446.53;5108520;28;20115;-64
2022/05/27 04:52:18;;;;;;;4.93;2.13;;;;;;;12.00;95.99;96446.44;5111345;28;20028;-64
2022/05/27 04:54:44;;;;;;;2.58;2.38;;;;;;;11.99;95.95;96445.56;5112287;28;20050;-64
2022/05/27 04:57:16;;;;;;;3.22;2.30;;;;;;;12.02;95.86;96449.78;5111409;28;20548;-63
2022/05/27 04:59:41;;;;;;;2.42;2.22;;;;;;;12.06;95.52;96447.75;5112721;28;20104;-62
2022/05/27 05:02:07;;;;;;;2.40;2.20;;;;;;;12.06;96.31;96453.00;5112804;28;20027;-64
2022/05/27 05:04:33;;;;;;;6.82;2.30;;;;;;;12.04;95.54;96455.78;5112241;28;20409;-63
2022/05/27 05:07:04;;;;;;;3.22;2.17;;;;;;;12.04;95.68;96459.22;5112544;28;20032;-63
2022/05/27 05:09:29;;;;;;;2.45;2.25;;;;;;;12.04;95.67;96461.88;5111226;28;20035;-63
2022/05/27 05:11:55;;;;;;;2.70;2.50;;;;;;;12.04;96.66;96458.41;5112269;28;20031;-64
2022/05/27 05:14:20;;;;;;;2.88;2.33;;;;;;;12.15;95.70;96465.41;5112221;28;20024;-62
2022/05/27 05:16:46;;;;;;;3.63;2.33;;;;;;;12.21;96.49;96470.16;5111192;28;20085;-64
2022/05/27 05:19:11;;;;;;;3.20;1.80;;;;;;;12.35;95.65;96465.47;5112289;28;20398;-63
2022/05/27 05:21:36;;;;;;;1.65;1.55;;;;;;;12.42;95.54;96456.88;5111973;28;20024;-64
2022/05/27 05:24:03;;;;;;;2.08;1.83;;;;;;;12.61;93.94;96456.09;5112193;28;20023;-63
2022/05/27 05:26:28;;;;;;;3.33;2.10;;;;;;;12.72;93.73;96462.25;5112019;28;20015;-63
2022/05/27 05:28:54;;;;;;;6.72;2.53;;;;;;;12.76;93.10;96463.63;5112085;28;20588;-64
2022/05/27 05:31:19;;;;;;;3.97;2.33;;;;;;;12.87;93.32;96460.84;5112003;28;20027;-63
2022/05/27 05:33:44;;;;;;;4.95;2.58;;;;;;;12.94;93.06;96466.44;5111682;28;20042;-64
2022/05/27 05:36:10;;;;;;;3.40;3.10;;;;;;;13.04;92.74;96466.44;5111032;28;20035;-64
2022/05/27 05:38:36;;;;;;;3.35;3.05;;;;;;;13.14;91.93;96467.25;5111685;28;20019;-64
2022/05/27 05:41:01;;;;;;;5.20;4.20;;;;;;;13.30;91.00;96471.16;5111777;28;20070;-64
2022/05/27 05:43:26;;;;;;;4.78;4.38;;;;;;;13.42;89.48;96472.72;5111546;28;20024;-64
2022/05/27 05:45:52;;;;;;;7.03;6.32;;;;;;;13.53;89.13;96470.91;5111486;28;20212;-64
2022/05/27 05:48:17;;;;;;;4.57;4.05;;;;;;;13.70;87.31;96467.53;5111656;28;20035;-64
2022/05/27 05:50:43;;;;;;;4.38;3.30;;;;;;;13.90;86.13;96467.50;5111555;28;20037;-64
2022/05/27 05:53:08;;;;;;;3.30;3.00;;;;;;;14.06;85.70;96471.34;5111507;28;20092;-64
2022/05/27 05:55:35;;;;;;;2.55;2.30;;;;;;;14.25;84.30;96468.59;5108410;28;20040;-64
2022/05/27 05:58:03;;;;;;;6.32;3.00;;;;;;;14.43;85.05;96473.13;5110117;28;20024;-64
2022/05/27 06:00:28;;;;;;;4.35;2.90;;;;;;;14.58;84.44;96468.16;5108741;28;20440;-64
2022/05/27 06:02:54;;;;;;;3.22;3.03;;;;;;;14.72;83.77;96465.06;5084897;28;20015;-65
2022/05/27 06:05:21;;;;;;;4.10;3.30;;;;;;;14.85;82.88;96464.69;5099856;28;20032;-64
2022/05/27 06:07:47;;;;;;;4.75;4.35;;;;;;;14.92;82.67;96462.28;5111493;28;20047;-64
2022/05/27 06:10:15;;;;;;;4.93;4.53;;;;;;;15.01;82.87;96457.91;5110225;28;20054;-63
2022/05/27 06:12:40;;;;;;;3.17;2.88;;;;;;;15.17;81.75;96457.22;5107316;28;20107;-64
2022/05/27 06:15:13;;;;;;;3.25;1.85;;;;;;;15.23;79.96;96447.81;5102997;28;20023;-64
2022/05/27 06:17:39;;;;;;;2.00;1.90;;;;;;;15.43;78.84;96449.31;5105600;28;20142;-63
2022/05/27 06:20:06;;;;;;;1.77;1.67;;;;;;;15.59;75.98;96447.78;5100071;28;20098;-62
2022/05/27 06:22:32;;;;;;;1.83;1.38;;;;;;;15.70;76.46;96450.16;5110409;28;20023;-63
2022/05/27 06:24:58;;;;;;;1.95;1.85;;;;;;;15.81;74.73;96442.94;5110066;28;20077;-62
2022/05/27 06:27:23;;;;;;;2.42;1.77;;;;;;;16.14;74.06;96449.31;5110425;28;20027;-62
2022/05/27 06:35:16;;;;;;;2.45;1.55;;;;;;;17.12;70.33;96439.13;5111150;28;20094;-61
2022/05/27 06:37:41;;;;;;;1.70;1.30;;;;;;;17.51;69.77;96445.66;5110578;28;20037;-61
2022/05/27 06:40:07;;;;;;;1.60;1.50;;;;;;;17.73;68.43;96441.47;5110602;28;20529;-62
2022/05/27 06:42:33;;;;;;;1.80;1.70;;;;;;;17.78;66.28;96442.78;5101297;28;20035;-63
2022/05/27 06:44:58;;;;;;;2.92;1.83;;;;;;;18.30;66.36;96442.38;5106337;28;20448;-63
2022/05/27 06:47:25;;;;;;;1.98;1.75;;;;;;;18.26;65.40;96440.19;5107182;28;20490;-62
2022/05/27 06:49:50;;;;;;;5.93;2.75;;;;;;;18.35;64.15;96444.53;5105067;28;20383;-61
2022/05/27 06:52:15;;;;;;;3.35;1.60;;;;;;;18.80;64.38;96447.47;5106972;28;20030;-61
2022/05/27 06:54:42;;;;;;;1.23;1.23;;;;;;;19.10;61.18;96444.16;5109116;28;20058;-62
2022/05/27 06:57:09;;;;;;;3.17;1.40;;;;;;;19.44;59.42;96440.19;5094083;28;20043;-63
2022/05/27 06:59:35;;;;;;;1.95;1.42;;;;;;;19.37;60.74;96440.13;5097204;28;20573;-62
2022/05/27 07:02:01;;;;;;;2.20;1.60;;;;;;;19.76;58.76;96435.59;5105457;28;20486;-63
2022/05/27 07:04:26;;;;;;;1.60;1.48;;;;;;;19.83;57.58;96436.53;5104789;28;20026;-62
2022/05/27 07:06:52;;;;;;;4.03;1.88;;;;;;;20.10;57.85;96430.78;5108706;28;20023;-63
2022/05/27 07:09:20;;;;;;;1.67;1.52;;;;;;;20.17;56.76;96427.19;5105597;28;20012;-63
2022/05/27 07:11:48;;;;;;;2.50;1.80;;;;;;;19.85;57.57;96426.47;5103323;28;20520;-62
2022/05/27 07:14:14;;;;;;;2.40;1.30;;;;;;;20.12;58.83;96426.91;5096814;28;20032;-63
2022/05/27 07:16:41;;;;;;;1.45;1.35;;;;;;;20.58;56.94;96428.53;5096649;28;20074;-64
2022/05/27 07:19:07;;;;;;;1.80;1.48;;;;;;;20.32;55.23;96419.16;5094832;28;20034;-63
2022/05/27 07:21:46;;;;;;;2.78;1.50;;;;;;;20.26;56.23;96421.72;5099128;28;20118;-73
2022/05/27 07:24:14;;;;;;;1.73;1.52;;;;;;;20.64;55.01;96416.25;5097207;28;20468;-74
2022/05/27 07:26:41;;;;;;;2.53;1.80;;;;;;;20.60;55.35;96415.78;5099285;28;20062;-72
2022/05/27 07:29:07;;;;;;;4.10;1.70;;;;;;;20.86;54.25;96411.78;5101673;28;20024;-73
2022/05/27 07:31:35;;;;;;;1.80;1.70;;;;;;;20.60;54.87;96414.97;5106155;28;20059;-73
2022/05/27 07:34:00;;;;;;;2.03;1.58;;;;;;;20.52;54.37;96415.91;5098080;28;20077;-72
2022/05/27 07:36:25;;;;;;;1.85;1.70;;;;;;;20.41;55.04;96414.53;5105142;28;20024;-73
2022/05/27 07:38:52;;;;;;;1.88;1.33;;;;;;;20.24;55.57;96421.94;5103011;28;20019;-73
2022/05/27 07:41:19;;;;;;;2.80;1.65;;;;;;;20.14;56.86;96416.88;5110119;28;20020;-73
2022/05/27 07:43:45;;;;;;;1.75;1.65;;;;;;;19.93;57.03;96414.91;5098652;28;20028;-72
2022/05/27 07:46:11;;;;;;;1.77;1.63;;;;;;;20.10;56.62;96414.75;5102108;28;20424;-72
2022/05/27 07:48:37;;;;;;;1.92;1.73;;;;;;;20.28;56.90;96415.19;5100209;28;20114;-72
2022/05/27 07:51:03;;;;;;;2.40;1.90;;;;;;;20.40;56.07;96417.38;5101591;28;20066;-73
2022/05/27 07:53:29;;;;;;;1.55;1.45;;;;;;;20.47;55.49;96408.44;5103784;28;20016;-72
2022/05/27 07:55:54;;;;;;;2.33;1.67;;;;;;;20.74;55.63;96400.72;5103262;28;20040;-72
2022/05/27 07:58:20;;;;;;;2.03;1.80;;;;;;;20.78;55.28;96408.34;5106651;27;20035;-72
2022/05/27 08:00:45;;;;;;;2.75;1.70;;;;;;;20.64;55.44;96410.06;5104863;27;20023;-72
2022/05/27 08:03:11;;;;;;;2.00;1.50;;;;;;;20.68;54.31;96411.38;5106537;27;20025;-73
2022/05/27 08:05:39;;;;;;;2.58;1.50;;;;;;;20.87;55.22;96413.44;5110903;27;20027;-73
2022/05/27 08:08:04;;;;;;;1.38;1.33;;;;;;;20.96;54.32;96414.16;5106241;27;20038;-73
2022/05/27 08:10:32;;;;;;;1.52;1.40;;;;;;;21.13;53.90;96411.22;5106243;27;20024;-73
2022/05/27 08:12:58;;;;;;;1.70;1.50;;;;;;;21.60;51.90;96417.00;5098256;27;20024;-73
2022/05/27 08:15:24;;;;;;;1.38;1.30;;;;;;;21.39;54.13;96413.34;5112686;27;20498;-73
2022/05/27 08:17:50;;;;;;;4.72;1.55;;;;;;;21.42;52.80;96418.28;5107316;27;20031;-72
2022/05/27 08:20:18;;;;;;;1.83;1.35;;;;;;;21.49;54.63;96418.34;5102181;27;20049;-73
2022/05/27 08:22:45;;;;;;;3.78;1.20;;;;;;;21.96;52.20;96413.34;5097965;27;20040;-72
2022/05/27 08:25:11;;;;;;;1.73;1.40;;;;;;;22.07;52.13;96413.84;5107742;27;20016;-73
2022/05/27 08:27:37;;;;;;;2.65;1.52;;;;;;;22.66;49.79;96414.34;5107334;27;20084;-73
2022/05/27 08:30:04;;;;;;;1.48;1.30;;;;;;;22.84;48.43;96419.16;5110638;27;20062;-75
2022/05/27 08:32:31;;;;;;;2.13;1.33;;;;;;;23.42;48.52;96415.16;5099868;27;20028;-75
2022/05/27 08:40:38;;;;;;;3.72;1.20;;;;;;;23.70;45.27;96414.94;5112716;27;20030;-74
2022/05/27 08:43:22;;;;;;;2.05;1.15;;;;;;;23.61;45.54;96417.00;5101862;27;20028;-74
2022/05/27 08:46:23;;;;;;;1.75;1.13;;;;;;;23.87;44.68;96418.06;5107221;27;20112;-74
2022/05/27 08:48:56;;;;;;;2.78;1.13;;;;;;;23.50;47.34;96414.13;5106184;27;20384;-75
2022/05/27 08:51:27;;;;;;;12.88;1.30;;;;;;;23.16;47.75;96411.38;5110508;27;20489;-74
2022/05/27 08:53:58;;;;;;;4.22;1.13;;;;;;;23.54;47.33;96420.72;5102430;27;20043;-73
2022/05/27 08:59:31;;;;;;;1.40;1.30;;;;;;;23.72;46.02;96409.38;5109066;27;20215;-76
2022/05/27 09:02:02;;;;;;;1.33;1.20;;;;;;;23.81;45.26;96397.38;5104880;27;20016;-76
2022/05/27 09:04:52;;;;;;;2.38;1.50;;;;;;;23.87;44.09;96406.47;5082412;27;20403;-75
2022/05/27 09:07:51;;;;;;;1.35;1.13;;;;;;;23.74;45.64;96408.13;5105083;27;20024;-74
2022/05/27 09:10:21;;;;;;;4.35;1.27;;;;;;;24.18;45.08;96400.44;5103562;27;20095;-75
2022/05/27 09:12:55;;;;;;;5.75;1.50;;;;;;;23.77;44.92;96403.38;5096860;27;20062;-75
2022/05/27 09:15:48;;;;;;;1.75;1.30;;;;;;;23.91;46.28;96399.63;5110877;27;20035;-74
2022/05/27 09:18:23;;;;;;;1.45;1.35;;;;;;;24.35;42.46;96399.13;5102699;27;20081;-74
2022/05/27 09:21:02;;;;;;;1.40;1.30;;;;;;;23.95;44.30;96408.91;5111680;27;20020;-75
2022/05/27 09:23:55;;;;;;;1.75;1.38;;;;;;;24.19;43.28;96401.25;5101053;27;20020;-76
2022/05/27 09:26:29;;;;;;;4.85;1.27;;;;;;;23.80;44.43;96405.66;5104068;27;20028;-76
2022/05/27 09:29:22;;;;;;;1.30;1.20;;;;;;;24.46;43.60;96404.69;5098795;27;20889;-74
2022/05/27 09:32:02;;;;;;;1.30;1.20;;;;;;;25.13;42.62;96395.47;5110344;27;20027;-75
2022/05/27 09:34:31;;;;;;;1.58;1.40;;;;;;;24.44;43.45;96395.19;5107981;27;20020;-76
2022/05/27 09:37:00;;;;;;;1.25;1.20;;;;;;;24.29;45.81;96396.25;5105123;27;20371;-76
2022/05/27 09:39:26;;;;;;;2.60;1.27;;;;;;;24.73;44.58;96382.22;5106805;27;20093;-76
2022/05/27 09:42:14;;;;;;;1.88;1.25;;;;;;;24.66;42.75;96376.03;5109794;27;20569;-76
2022/05/27 09:44:54;;;;;;;1.67;1.10;;;;;;;24.84;41.12;96373.47;5097566;27;20059;-76
2022/05/27 09:47:22;;;;;;;3.17;1.25;;;;;;;25.01;41.16;96371.09;5108159;27;20027;-76
2022/05/27 09:49:57;;;;;;;2.55;1.30;;;;;;;24.95;40.85;96373.84;5101793;27;20024;-76
2022/05/27 09:52:26;;;;;;;1.75;1.27;;;;;;;25.73;41.67;96369.91;5097960;27;20024;-76
2022/05/27 09:54:59;;;;;;;4.28;1.30;;;;;;;26.19;41.17;96361.59;5109426;27;20097;-76
2022/05/27 09:57:30;;;;;;;3.65;1.20;;;;;;;26.20;39.51;96359.72;5104776;27;20070;-75
2022/05/27 09:59:58;;;;;;;1.92;1.40;;;;;;;26.60;38.77;96362.75;5100202;27;20024;-77
2022/05/27 10:02:32;;;;;;;1.52;1.13;;;;;;;25.83;39.41;96353.22;5108520;27;20066;-76
2022/05/27 10:05:07;;;;;;;1.10;1.10;;;;;;;26.36;38.74;96356.44;5105205;27;20130;-78
2022/05/27 10:07:35;;;;;;;2.10;1.20;;;;;;;25.94;40.50;96359.75;5106460;27;20030;-78
2022/05/27 10:10:36;;;;;;;1.75;1.00;;;;;;;25.29;41.35;96344.78;5101917;27;20055;-76
2022/05/27 10:13:16;;;;;;;4.45;1.20;;;;;;;25.48;42.37;96342.16;5100222;27;20036;-77
2022/05/27 10:15:42;;;;;;;1.60;1.20;;;;;;;26.31;40.08;96349.00;5101671;27;20020;-76
2022/05/27 10:18:19;;;;;;;1.45;1.30;;;;;;;26.17;41.53;96350.19;5098569;27;20437;-75
2022/05/27 10:21:04;;;;;;;1.25;1.05;;;;;;;26.53;39.61;96356.63;5106830;28;20031;-76
2022/05/27 10:23:34;;;;;;;3.97;1.38;;;;;;;26.26;39.91;96348.88;5106851;27;20112;-76
2022/05/27 10:26:20;;;;;;;1.10;1.08;;;;;;;26.77;38.08;96337.81;5091347;28;20829;-77
2022/05/27 10:29:00;;;;;;;2.25;1.20;;;;;;;26.08;38.02;96338.84;5099341;27;20085;-75
2022/05/27 10:31:25;;;;;;;1.27;1.13;;;;;;;25.55;40.80;96330.28;5108166;27;20024;-77
2022/05/27 10:33:53;;;;;;;3.80;1.30;;;;;;;25.70;41.21;96332.63;5103192;27;20023;-77
2022/05/27 10:36:46;;;;;;;3.08;1.42;;;;;;;26.17;38.78;96334.84;5102613;27;20031;-77
2022/05/27 10:39:46;;;;;;;7.13;1.60;;;;;;;26.42;39.33;96333.13;5109063;27;20394;-78
2022/05/27 10:42:28;;;;;;;2.05;1.50;;;;;;;25.72;41.17;96332.41;5079222;27;20032;-77
2022/05/27 10:45:02;;;;;;;4.15;1.30;;;;;;;26.10;40.40;96326.00;5107256;27;20036;-75
2022/05/27 10:47:43;;;;;;;2.85;0.90;;;;;;;25.60;40.59;96318.84;5107792;27;20038;-77
2022/05/27 10:50:21;;;;;;;1.48;1.23;;;;;;;25.83;42.07;96320.06;5089443;28;20024;-78
2022/05/27 10:52:46;;;;;;;1.40;1.25;;;;;;;26.54;39.58;96325.06;5095417;28;20505;-77
2022/05/27 10:55:36;;;;;;;1.98;1.00;;;;;;;26.00;41.58;96322.97;5105245;27;20043;-77
2022/05/27 11:04:12;;;;;;;3.00;1.35;;;;;;;26.33;39.70;96320.97;5101446;28;19918;-77
2022/05/27 11:06:50;;;;;;;3.13;1.00;;;;;;;26.20;39.61;96316.56;5109316;28;20048;-74
2022/05/27 11:09:22;;;;;;;1.85;1.38;;;;;;;25.71;41.07;96304.59;5097531;28;20031;-78
2022/05/27 11:12:01;;;;;;;1.33;1.23;;;;;;;26.34;40.07;96304.56;5098665;28;20102;-74
2022/05/27 11:15:12;;;;;;;8.40;1.60;;;;;;;26.45;39.14;96300.25;5106690;28;20030;-76
2022/05/27 11:18:04;;;;;;;1.48;1.33;;;;;;;26.42;39.11;96290.72;5087136;28;20119;-78
2022/05/27 11:20:57;;;;;;;1.50;1.40;;;;;;;26.10;39.81;96288.22;5107043;28;20064;-79
2022/05/27 11:23:54;;;;;;;1.52;1.42;;;;;;;26.42;39.53;96287.22;5102636;28;20051;-75
2022/05/27 11:26:31;;;;;;;1.42;1.35;;;;;;;26.29;39.91;96272.84;5055525;28;20489;-77
2022/05/27 11:29:15;;;;;;;1.33;1.23;;;;;;;26.22;40.97;96269.41;5082922;28;20024;-77
2022/05/27 11:32:15;;;;;;;2.20;1.50;;;;;;;26.25;40.97;96271.66;5104498;28;20077;-76
2022/05/27 11:35:07;;;;;;;4.05;1.42;;;;;;;26.93;39.11;96266.13;5100804;27;20490;-73
2022/05/27 11:37:51;;;;;;;1.90;1.50;;;;;;;26.23;41.20;96276.47;5112394;27;20627;-73
2022/05/27 11:40:27;;;;;;;1.13;1.10;;;;;;;26.83;40.10;96263.16;5114912;27;20023;-77
2022/05/27 11:42:58;;;;;;;1.45;1.33;;;;;;;26.44;40.47;96263.53;5101466;27;20020;-77
2022/05/27 11:45:27;;;;;;;1.45;1.35;;;;;;;26.77;39.19;96262.19;5109103;27;20066;-76
2022/05/27 11:48:02;;;;;;;1.88;1.48;;;;;;;26.58;41.49;96259.56;5107273;27;20068;-77
2022/05/27 11:50:49;;;;;;;2.15;1.60;;;;;;;27.28;38.69;96251.00;5109718;27;20042;-75
2022/05/27 11:53:44;;;;;;;1.80;1.70;;;;;;;26.85;38.72;96251.09;5102414;27;20051;-75
2022/05/27 11:56:22;;;;;;;2.03;1.73;;;;;;;26.87;40.13;96246.28;5110323;27;20403;-77
2022/05/27 11:59:12;;;;;;;4.45;1.60;;;;;;;26.68;41.15;96250.91;5111499;27;20031;-76
2022/05/27 12:01:50;;;;;;;1.77;1.15;;;;;;;27.25;38.82;96235.25;5086480;27;20452;-75
2022/05/27 12:04:30;;;;;;;3.10;1.00;;;;;;;26.75;39.69;96237.31;5100409;27;20047;-72
2022/05/27 12:07:31;;;;;;;1.35;1.23;;;;;;;27.21;38.94;96231.41;5108355;27;20019;-76
2022/05/27 12:10:28;;;;;;;1.60;1.20;;;;;;;27.04;38.87;96226.69;5105570;27;20391;-76
2022/05/27 12:13:10;;;;;;;2.88;1.25;;;;;;;27.20;38.15;96224.34;5064604;27;20044;-73
2022/05/27 12:16:04;;;;;;;1.30;1.20;;;;;;;27.20;38.94;96219.78;5103423;27;20019;-76
2022/05/27 12:18:37;;;;;;;2.47;1.20;;;;;;;27.33;38.82;96216.00;5096307;27;20042;-76
2022/05/27 12:21:06;;;;;;;1.65;1.40;;;;;;;27.38;38.38;96215.28;5101422;27;20073;-76
2022/05/27 12:23:35;;;;;;;1.45;1.13;;;;;;;27.56;38.73;96208.97;5105679;27;20023;-76
2022/05/27 12:26:01;;;;;;;3.03;1.35;;;;;;;27.93;37.46;96208.59;5113988;27;20440;-73